Latest Weather Forecast - Saturday 21st November 2020 (6pm)

Forecast Period: 

 6 pm 21st November 2020 to 6 am 22nd November 2020 

Synopsis:

 Weak unstable conditions linger across the islands

Forecast:

Cloudy with gusty winds and chance of showers, becoming decreasingly cloudy.        

Weather Warning/ Advisory:

None

Winds:

 Generally from the east at 20 km/h – 40 km/h(12 – 25 mph)

Sea Conditions:  Moderate to rough in open water; swells (1.5 –   3.0 m)

Marine Warning:

Small craft operators and sea bathers should be prepared for above normal sea swells and gusty winds.

Upcoming Tides:
 High: 00:44 am 11:31 am
 Low:

05:52 am

06:57 pm 

Aviation WX

[Source: ADDS]
METAR
TVSA 071600Z 07012KT 9999 SCT020 29/23 Q1016 NOSIG =
TVSA 071100Z 0712/0812 08015KT 9999 SCT020
TAF
TVSA 071100Z 0712/0812 08015KT 9999 SCT020 =
SR / SS: 09:41 / 22:21 UTC (Sunrise Sunset 2021-05-07)